createdAt,value
2022-10-03T00:01:38.669Z,101947.84
2022-10-03T00:04:19.130Z,101948.69
2022-10-03T00:06:58.842Z,101961.69
2022-10-03T00:09:43.126Z,101964.00
2022-10-03T00:12:19.866Z,101955.13
2022-10-03T00:15:00.942Z,101958.13
2022-10-03T00:17:42.733Z,101961.09
2022-10-03T00:20:35.453Z,101961.44
2022-10-03T00:23:09.055Z,101960.91
2022-10-03T00:25:50.217Z,101961.75
2022-10-03T00:28:29.958Z,101964.41
2022-10-03T00:31:10.067Z,101968.75
2022-10-03T00:33:51.118Z,101957.28
2022-10-03T00:36:28.554Z,101965.44
2022-10-03T00:39:21.873Z,101966.25
2022-10-03T00:42:14.850Z,101977.28
2022-10-03T00:45:21.378Z,101971.44
2022-10-03T00:48:24.559Z,101985.63
2022-10-03T00:51:08.006Z,101979.13
2022-10-03T00:53:49.418Z,101985.84
2022-10-03T00:56:43.844Z,101985.69
2022-10-03T00:59:26.630Z,101985.38
2022-10-03T01:01:55.104Z,101987.69
2022-10-03T01:04:45.193Z,101983.88
2022-10-03T01:07:28.750Z,102000.38
2022-10-03T01:10:09.456Z,101996.69
2022-10-03T01:12:55.960Z,102001.03
2022-10-03T01:15:32.057Z,102001.19
2022-10-03T01:18:16.821Z,101998.19
2022-10-03T01:20:55.478Z,102003.53
2022-10-03T01:23:44.190Z,102004.34
2022-10-03T01:26:28.411Z,102008.84
2022-10-03T01:29:20.538Z,102011.53
2022-10-03T01:31:54.341Z,102007.88
2022-10-03T01:34:28.769Z,102004.34
2022-10-03T01:37:08.537Z,102008.84
2022-10-03T01:39:43.575Z,102009.69
2022-10-03T01:42:17.247Z,102013.19
2022-10-03T01:45:01.451Z,102012.22
2022-10-03T01:47:37.530Z,102009.38
2022-10-03T01:50:14.001Z,102014.56
2022-10-03T01:52:50.034Z,102013.19
2022-10-03T01:55:24.535Z,102018.22
2022-10-03T01:58:00.941Z,102018.91
2022-10-03T02:00:38.175Z,102027.38
2022-10-03T02:03:12.159Z,102028.91
2022-10-03T02:05:49.871Z,102038.41
2022-10-03T02:08:31.163Z,102038.22
2022-10-03T02:11:02.657Z,102040.91
2022-10-03T02:13:42.253Z,102041.72
2022-10-03T02:16:16.469Z,102049.59
2022-10-03T02:18:52.062Z,102045.06
2022-10-03T02:21:21.933Z,102045.75
2022-10-03T02:23:53.129Z,102044.06
2022-10-03T02:26:58.670Z,102048.25
2022-10-03T02:29:52.306Z,102042.56
2022-10-03T02:33:11.302Z,102050.25
2022-10-03T02:36:06.154Z,102054.75
2022-10-03T02:38:51.016Z,102051.94
2022-10-03T02:41:48.325Z,102065.25
2022-10-03T02:44:43.142Z,102065.41
2022-10-03T02:47:39.618Z,102071.78
2022-10-03T02:50:45.566Z,102067.41
2022-10-03T02:54:00.143Z,102059.75
2022-10-03T02:57:10.402Z,102066.25
2022-10-03T03:00:06.167Z,102066.06
2022-10-03T03:03:02.710Z,102073.41
2022-10-03T03:05:45.494Z,102077.06
2022-10-03T03:08:33.688Z,102080.75
2022-10-03T03:11:27.753Z,102081.28
2022-10-03T03:14:43.125Z,102078.75
2022-10-03T03:17:26.220Z,102092.09
2022-10-03T03:20:29.400Z,102091.25
2022-10-03T03:23:21.884Z,102092.94
2022-10-03T03:26:11.771Z,102098.09
2022-10-03T03:28:54.884Z,102109.59
2022-10-03T03:31:30.712Z,102109.78
2022-10-03T03:34:10.483Z,102105.44
2022-10-03T03:36:42.778Z,102103.75
2022-10-03T03:39:25.300Z,102098.41
2022-10-03T03:42:09.377Z,102099.25
2022-10-03T03:45:19.244Z,102094.59
2022-10-03T03:48:04.864Z,102097.75
2022-10-03T03:50:48.441Z,102099.91
2022-10-03T03:53:53.897Z,102102.75
2022-10-03T03:56:47.698Z,102104.41
2022-10-03T03:59:28.886Z,102108.22
2022-10-03T04:02:11.484Z,102106.06
2022-10-03T04:05:01.917Z,102103.88
2022-10-03T04:07:44.370Z,102102.56
2022-10-03T04:10:27.907Z,102103.53
2022-10-03T04:13:24.304Z,102108.34
2022-10-03T04:16:11.968Z,102107.03
2022-10-03T04:19:00.844Z,102105.81
2022-10-03T04:21:45.483Z,102110.81
2022-10-03T04:24:33.784Z,102107.47
2022-10-03T04:27:27.194Z,102118.47
2022-10-03T04:30:06.130Z,102116.91
2022-10-03T04:32:58.450Z,102127.59
2022-10-03T04:35:44.930Z,102123.56
2022-10-03T04:38:21.187Z,102122.03
2022-10-03T04:40:56.365Z,102118.19
2022-10-03T04:43:38.686Z,102119.31
2022-10-03T04:46:20.579Z,102122.47
2022-10-03T04:48:57.261Z,102116.31
2022-10-03T04:51:42.067Z,102117.00
2022-10-03T04:54:21.365Z,102118.19
2022-10-03T04:56:57.247Z,102115.56
2022-10-03T04:59:37.761Z,102111.97
2022-10-03T05:02:17.399Z,102126.00
2022-10-03T05:05:00.151Z,102134.03
2022-10-03T05:07:41.516Z,102131.72
2022-10-03T05:10:27.360Z,102129.06
2022-10-03T05:13:03.441Z,102131.91
2022-10-03T05:15:36.139Z,102130.41
2022-10-03T05:18:15.115Z,102133.47
2022-10-03T05:20:54.164Z,102136.47
2022-10-03T05:23:41.703Z,102133.81
2022-10-03T05:26:43.730Z,102141.47
2022-10-03T05:29:16.117Z,102143.81
2022-10-03T05:31:50.998Z,102140.69
2022-10-03T05:34:29.967Z,102140.16
2022-10-03T05:37:21.697Z,102148.19
2022-10-03T05:39:59.829Z,102149.53
2022-10-03T05:42:38.015Z,102150.88
2022-10-03T05:45:21.618Z,102150.34
2022-10-03T05:47:52.947Z,102154.53
2022-10-03T05:51:13.269Z,102152.22
2022-10-03T05:54:06.622Z,102164.75
2022-10-03T05:56:57.988Z,102169.06
2022-10-03T05:59:43.994Z,102159.72
2022-10-03T06:02:36.863Z,102163.16
2022-10-03T06:05:25.714Z,102166.03
2022-10-03T06:08:20.861Z,102167.91
2022-10-03T06:10:53.208Z,102163.53
2022-10-03T06:13:38.482Z,102171.16
2022-10-03T06:16:22.980Z,102168.03
2022-10-03T06:19:11.554Z,102167.06
2022-10-03T06:22:29.762Z,102168.13
2022-10-03T06:25:32.285Z,102167.50
2022-10-03T06:28:30.976Z,102178.63
2022-10-03T06:31:22.404Z,102168.59
2022-10-03T06:34:08.201Z,102175.22
2022-10-03T06:37:01.088Z,102172.84
2022-10-03T06:39:57.637Z,102174.56
2022-10-03T06:42:53.752Z,102172.91
2022-10-03T06:45:50.570Z,102184.56
2022-10-03T06:48:41.861Z,102181.81
2022-10-03T06:52:03.991Z,102183.84
2022-10-03T06:55:32.858Z,102184.06
2022-10-03T06:58:30.709Z,102187.50
2022-10-03T07:01:20.107Z,102186.50
2022-10-03T07:04:07.615Z,102188.25
2022-10-03T07:06:50.057Z,102192.03
2022-10-03T07:09:54.694Z,102194.44
2022-10-03T07:13:06.938Z,102186.25
2022-10-03T07:16:20.944Z,102186.31
2022-10-03T07:19:16.038Z,102193.66
2022-10-03T07:22:18.618Z,102201.56
2022-10-03T07:25:26.636Z,102198.56
2022-10-03T07:28:07.593Z,102195.81
2022-10-03T07:30:54.560Z,102197.22
2022-10-03T07:33:40.690Z,102193.50
2022-10-03T07:37:01.975Z,102204.00
2022-10-03T07:40:03.186Z,102201.28
2022-10-03T07:43:12.727Z,102210.72
2022-10-03T07:45:45.746Z,102215.47
2022-10-03T07:48:58.070Z,102206.13
2022-10-03T07:51:35.500Z,102211.03
2022-10-03T07:54:29.723Z,102224.00
2022-10-03T07:57:48.150Z,102221.56
2022-10-03T08:00:26.259Z,102222.50
2022-10-03T08:03:33.309Z,102220.31
2022-10-03T08:06:17.470Z,102225.03
2022-10-03T08:09:03.067Z,102234.25
2022-10-03T08:11:45.696Z,102239.63
2022-10-03T08:14:20.151Z,102241.88
2022-10-03T08:17:07.552Z,102241.03
2022-10-03T08:19:53.603Z,102246.28
2022-10-03T08:22:32.385Z,102240.53
2022-10-03T08:25:26.982Z,102242.94
2022-10-03T08:28:19.855Z,102247.81
2022-10-03T08:31:11.986Z,102250.06
2022-10-03T08:34:42.565Z,102255.88
2022-10-03T08:37:30.465Z,102256.09
2022-10-03T08:40:39.589Z,102259.50
2022-10-03T08:43:43.683Z,102263.91
2022-10-03T08:46:36.924Z,102266.97
2022-10-03T08:49:36.762Z,102265.41
2022-10-03T08:52:21.360Z,102275.50
2022-10-03T08:55:22.785Z,102265.41
2022-10-03T08:58:09.739Z,102266.38
2022-10-03T09:00:57.202Z,102276.63
2022-10-03T09:04:04.709Z,102271.91
2022-10-03T09:07:20.298Z,102270.16
2022-10-03T09:10:21.878Z,102269.66
2022-10-03T09:13:21.175Z,102266.59
2022-10-03T09:16:24.149Z,102269.56
2022-10-03T09:19:12.474Z,102274.59
2022-10-03T09:22:11.533Z,102273.59
2022-10-03T09:25:06.175Z,102280.19
2022-10-03T09:27:59.649Z,102263.94
2022-10-03T09:30:46.082Z,102265.84
2022-10-03T09:33:51.634Z,102262.97
2022-10-03T09:36:46.769Z,102278.13
2022-10-03T09:39:40.806Z,102272.00
2022-10-03T09:42:43.458Z,102263.94
2022-10-03T09:45:37.240Z,102262.84
2022-10-03T09:48:27.949Z,102264.00
2022-10-03T09:51:20.139Z,102273.31
2022-10-03T09:54:22.236Z,102275.59
2022-10-03T09:57:38.406Z,102269.09
2022-10-03T10:00:31.654Z,102274.72
2022-10-03T10:03:37.644Z,102278.56
2022-10-03T10:06:24.928Z,102273.84
2022-10-03T10:09:40.798Z,102276.34
2022-10-03T10:12:44.382Z,102281.00
2022-10-03T10:15:58.796Z,102268.34
2022-10-03T10:18:39.084Z,102276.75
2022-10-03T10:21:41.974Z,102289.47
2022-10-03T10:24:55.043Z,102283.41
2022-10-03T10:28:01.868Z,102289.50
2022-10-03T10:30:52.356Z,102282.75
2022-10-03T10:33:59.705Z,102279.38
2022-10-03T10:37:07.570Z,102279.22
2022-10-03T10:40:02.861Z,102280.13
2022-10-03T10:43:11.601Z,102269.31
2022-10-03T10:46:27.331Z,102253.16
2022-10-03T10:49:30.906Z,102252.47
2022-10-03T10:52:34.717Z,102256.53
2022-10-03T10:55:48.464Z,102267.91
2022-10-03T10:59:12.392Z,102259.56
2022-10-03T11:02:16.986Z,102261.28
2022-10-03T11:05:24.341Z,102269.56
2022-10-03T11:08:24.921Z,102282.38
2022-10-03T11:11:27.669Z,102282.38
2022-10-03T11:14:35.214Z,102284.41
2022-10-03T11:17:53.657Z,102285.56
2022-10-03T11:21:05.699Z,102267.16
2022-10-03T11:24:14.673Z,102269.16
2022-10-03T11:27:23.546Z,102266.50
2022-10-03T11:30:08.615Z,102272.72
2022-10-03T11:33:14.897Z,102273.88
2022-10-03T11:36:32.847Z,102266.19
2022-10-03T11:39:05.473Z,102265.84
2022-10-03T11:41:54.572Z,102280.50
2022-10-03T11:44:27.469Z,102276.97
2022-10-03T11:47:16.022Z,102267.28
2022-10-03T11:50:04.311Z,102267.94
2022-10-03T11:52:36.870Z,102262.50
2022-10-03T11:55:24.427Z,102267.78
2022-10-03T11:58:04.702Z,102271.00
2022-10-03T12:00:36.398Z,102266.59
2022-10-03T12:03:19.849Z,102268.03
2022-10-03T12:06:14.326Z,102263.88
2022-10-03T12:08:56.453Z,102270.72
2022-10-03T12:11:28.310Z,102259.69
2022-10-03T12:14:13.682Z,102265.34
2022-10-03T12:16:58.433Z,102270.34
2022-10-03T12:19:32.408Z,102278.72
2022-10-03T12:22:10.834Z,102265.88
2022-10-03T12:24:41.163Z,102261.59
2022-10-03T12:27:21.250Z,102263.56
2022-10-03T12:29:58.591Z,102259.78
2022-10-03T12:32:44.022Z,102282.28
2022-10-03T12:35:34.127Z,102255.84
2022-10-03T12:38:22.523Z,102275.72
2022-10-03T12:41:02.494Z,102261.03
2022-10-03T12:43:42.730Z,102278.69
2022-10-03T12:46:16.629Z,102275.84
2022-10-03T12:48:50.377Z,102272.19
2022-10-03T12:51:36.502Z,102276.47
2022-10-03T12:54:16.722Z,102277.25
2022-10-03T12:56:49.554Z,102287.44
2022-10-03T12:59:28.186Z,102286.53
2022-10-03T13:02:22.826Z,102273.53
2022-10-03T13:05:03.987Z,102277.97
2022-10-03T13:07:42.833Z,102271.56
2022-10-03T13:10:23.324Z,102271.84
2022-10-03T13:12:55.668Z,102276.91
2022-10-03T13:15:45.293Z,102283.94
2022-10-03T13:18:33.175Z,102284.19
2022-10-03T13:21:33.319Z,102277.75
2022-10-03T13:24:01.054Z,102292.84
2022-10-03T13:26:47.564Z,102270.84
2022-10-03T13:29:29.982Z,102288.44
2022-10-03T13:32:08.245Z,102271.88
2022-10-03T13:34:57.589Z,102270.66
2022-10-03T13:37:33.634Z,102276.03
2022-10-03T13:40:09.061Z,102267.34
2022-10-03T13:42:45.207Z,102278.56
2022-10-03T13:45:16.514Z,102259.78
2022-10-03T13:47:47.903Z,102263.31
2022-10-03T13:50:19.821Z,102268.66
2022-10-03T13:52:53.237Z,102263.50
2022-10-03T13:55:42.145Z,102267.47
2022-10-03T13:58:41.795Z,102268.66
2022-10-03T14:01:38.431Z,102274.13
2022-10-03T14:04:36.263Z,102274.50
2022-10-03T14:07:13.133Z,102272.97
2022-10-03T14:09:57.863Z,102270.84
2022-10-03T14:12:54.464Z,102276.22
2022-10-03T14:15:36.192Z,102268.78
2022-10-03T14:18:15.769Z,102265.63
2022-10-03T14:21:23.694Z,102271.38
2022-10-03T14:23:59.478Z,102266.78
2022-10-03T14:26:33.903Z,102269.47
2022-10-03T14:29:09.214Z,102268.50
2022-10-03T14:31:44.747Z,102263.78
2022-10-03T14:34:24.278Z,102258.91
2022-10-03T14:36:59.172Z,102259.22
2022-10-03T14:39:36.849Z,102266.66
2022-10-03T14:42:32.637Z,102267.81
2022-10-03T14:45:07.783Z,102264.63
2022-10-03T14:47:37.590Z,102267.59
2022-10-03T14:50:06.781Z,102263.19
2022-10-03T14:52:41.391Z,102261.91
2022-10-03T14:55:16.158Z,102258.59
2022-10-03T14:58:09.401Z,102265.59
2022-10-03T15:00:43.601Z,102261.38
2022-10-03T15:03:22.459Z,102262.06
2022-10-03T15:05:59.230Z,102255.00
2022-10-03T15:08:35.842Z,102255.78
2022-10-03T15:11:07.036Z,102257.56
2022-10-03T15:13:42.255Z,102261.97
2022-10-03T15:16:14.520Z,102265.41
2022-10-03T15:18:52.538Z,102261.19
2022-10-03T15:21:20.618Z,102255.97
2022-10-03T15:23:55.471Z,102249.81
2022-10-03T15:26:25.993Z,102251.19
2022-10-03T15:28:59.274Z,102255.13
2022-10-03T15:31:36.184Z,102260.41
2022-10-03T15:34:08.070Z,102249.34
2022-10-03T15:36:39.049Z,102244.03
2022-10-03T15:39:17.393Z,102250.25
2022-10-03T15:41:55.315Z,102248.50
2022-10-03T15:44:28.926Z,102241.84
2022-10-03T15:47:01.830Z,102241.34
2022-10-03T15:49:33.858Z,102243.56
2022-10-03T15:52:14.281Z,102238.03
2022-10-03T15:54:47.257Z,102240.81
2022-10-03T15:57:25.393Z,102237.59
2022-10-03T15:59:59.310Z,102232.53
2022-10-03T16:02:35.082Z,102243.59
2022-10-03T16:05:05.591Z,102240.66
2022-10-03T16:07:41.685Z,102245.47
2022-10-03T16:10:20.432Z,102248.41
2022-10-03T16:12:58.365Z,102249.53
2022-10-03T16:15:37.689Z,102248.50
2022-10-03T16:18:11.617Z,102242.97
2022-10-03T16:20:42.132Z,102248.72
2022-10-03T16:23:18.559Z,102250.09
2022-10-03T16:25:50.098Z,102248.47
2022-10-03T16:28:22.679Z,102244.41
2022-10-03T16:30:58.025Z,102253.00
2022-10-03T16:33:31.029Z,102248.22
2022-10-03T16:36:01.842Z,102246.53
2022-10-03T16:38:35.974Z,102248.56
2022-10-03T16:41:06.914Z,102251.97
2022-10-03T16:43:35.850Z,102248.00
2022-10-03T16:46:10.353Z,102254.44
2022-10-03T16:49:00.642Z,102251.47
2022-10-03T16:51:37.984Z,102247.38
2022-10-03T16:54:07.222Z,102246.59
2022-10-03T16:56:41.358Z,102244.66
2022-10-03T16:59:17.651Z,102243.72
2022-10-03T17:01:50.854Z,102248.75
2022-10-03T17:04:24.002Z,102245.63
2022-10-03T17:06:53.766Z,102252.00
2022-10-03T17:09:31.794Z,102255.19
2022-10-03T17:12:00.962Z,102257.41
2022-10-03T17:14:37.035Z,102252.75
2022-10-03T17:17:08.598Z,102260.97
2022-10-03T17:19:40.906Z,102261.50
2022-10-03T17:22:16.819Z,102264.53
2022-10-03T17:24:49.376Z,102264.22
2022-10-03T17:27:24.910Z,102266.44
2022-10-03T17:30:00.779Z,102266.59
2022-10-03T17:32:36.114Z,102263.41
2022-10-03T17:35:11.502Z,102261.06
2022-10-03T17:38:30.513Z,102256.25
2022-10-03T17:41:13.180Z,102263.16
2022-10-03T17:43:46.540Z,102254.78
2022-10-03T17:46:21.124Z,102262.81
2022-10-03T17:48:57.444Z,102253.13
2022-10-03T17:51:37.506Z,102260.34
2022-10-03T17:54:15.023Z,102257.81
2022-10-03T17:56:46.191Z,102259.84
2022-10-03T17:59:19.450Z,102268.06
2022-10-03T18:01:52.988Z,102271.56
2022-10-03T18:04:28.133Z,102269.22
2022-10-03T18:06:59.677Z,102268.41
2022-10-03T18:09:32.113Z,102260.88
2022-10-03T18:12:17.042Z,102261.22
2022-10-03T18:15:01.341Z,102266.09
2022-10-03T18:17:41.126Z,102267.47
2022-10-03T18:20:27.737Z,102261.63
2022-10-03T18:23:00.561Z,102254.09
2022-10-03T18:26:14.984Z,102257.94
2022-10-03T18:28:44.777Z,102255.97
2022-10-03T18:31:17.606Z,102257.50
2022-10-03T18:33:51.047Z,102261.34
2022-10-03T18:36:23.891Z,102256.34
2022-10-03T18:38:55.713Z,102261.03
2022-10-03T18:41:23.291Z,102263.88
2022-10-03T18:43:58.648Z,102249.16
2022-10-03T18:46:30.811Z,102256.53
2022-10-03T18:49:30.106Z,102261.22
2022-10-03T18:51:57.963Z,102256.88
2022-10-03T18:54:35.447Z,102266.91
2022-10-03T18:57:08.713Z,102255.19
2022-10-03T18:59:45.749Z,102259.72
2022-10-03T19:02:22.271Z,102265.06
2022-10-03T19:04:56.154Z,102260.88
2022-10-03T19:07:26.064Z,102262.91
2022-10-03T19:10:28.692Z,102269.59
2022-10-03T19:13:02.857Z,102260.25
2022-10-03T19:15:43.838Z,102270.44
2022-10-03T19:18:22.543Z,102269.94
2022-10-03T19:20:54.654Z,102266.59
2022-10-03T19:23:27.277Z,102270.47
2022-10-03T19:25:58.703Z,102276.97
2022-10-03T19:28:31.179Z,102259.41
2022-10-03T19:31:05.592Z,102271.28
2022-10-03T19:33:43.513Z,102268.78
2022-10-03T19:36:17.827Z,102270.78
2022-10-03T19:38:48.725Z,102274.47
2022-10-03T19:41:26.766Z,102274.47
2022-10-03T19:43:55.443Z,102277.28
2022-10-03T19:46:47.312Z,102283.66
2022-10-03T19:49:31.179Z,102279.13
2022-10-03T19:52:17.317Z,102274.47
2022-10-03T19:54:51.616Z,102273.44
2022-10-03T19:57:21.823Z,102276.13
2022-10-03T19:59:53.397Z,102272.63
2022-10-03T20:02:26.684Z,102262.59
2022-10-03T20:04:57.310Z,102274.78
2022-10-03T20:07:46.354Z,102267.28
2022-10-03T20:10:37.181Z,102275.97
2022-10-03T20:13:05.063Z,102276.66
2022-10-03T20:15:39.200Z,102269.28
2022-10-03T20:18:07.783Z,102269.09
2022-10-03T20:20:35.781Z,102269.09
2022-10-03T20:23:06.884Z,102265.59
2022-10-03T20:25:39.371Z,102266.28
2022-10-03T20:28:17.380Z,102267.94
2022-10-03T20:30:48.305Z,102273.94
2022-10-03T20:33:19.810Z,102259.59
2022-10-03T20:35:55.758Z,102263.06
2022-10-03T20:38:39.910Z,102259.41
2022-10-03T20:41:12.573Z,102259.25
2022-10-03T20:43:44.324Z,102260.91
2022-10-03T20:46:21.710Z,102249.22
2022-10-03T20:49:27.238Z,102263.22
2022-10-03T20:52:00.191Z,102257.03
2022-10-03T20:54:35.268Z,102261.25
2022-10-03T20:57:06.882Z,102262.06
2022-10-03T20:59:42.778Z,102265.56
2022-10-03T21:02:23.137Z,102259.22
2022-10-03T21:04:55.470Z,102258.03
2022-10-03T21:07:38.266Z,102266.91
2022-10-03T21:10:25.653Z,102262.22
2022-10-03T21:12:56.517Z,102265.38
2022-10-03T21:15:37.702Z,102263.56
2022-10-03T21:18:06.293Z,102271.25
2022-10-03T21:20:38.634Z,102260.34
2022-10-03T21:23:15.485Z,102260.34
2022-10-03T21:25:45.230Z,102257.34
2022-10-03T21:28:32.097Z,102263.38
2022-10-03T21:31:15.016Z,102247.31
2022-10-03T21:33:51.850Z,102267.88
2022-10-03T21:36:26.747Z,102259.66
2022-10-03T21:39:07.803Z,102261.50
2022-10-03T21:41:47.214Z,102258.03
2022-10-03T21:44:35.949Z,102246.63
2022-10-03T21:47:17.947Z,102244.66
2022-10-03T21:49:54.303Z,102247.84
2022-10-03T21:52:50.542Z,102238.66
2022-10-03T21:55:51.259Z,102242.88
2022-10-03T21:58:34.434Z,102240.53
2022-10-03T22:01:11.951Z,102244.19
2022-10-03T22:03:44.154Z,102239.00
2022-10-03T22:06:20.079Z,102241.69
2022-10-03T22:08:49.519Z,102239.19
2022-10-03T22:11:26.299Z,102236.53
2022-10-03T22:14:03.529Z,102235.88
2022-10-03T22:16:38.702Z,102231.66
2022-10-03T22:19:28.376Z,102234.53
2022-10-03T22:22:09.101Z,102230.16
2022-10-03T22:24:46.637Z,102228.53
2022-10-03T22:27:21.013Z,102222.50
2022-10-03T22:29:59.840Z,102221.97
2022-10-03T22:32:34.092Z,102222.31
2022-10-03T22:35:10.015Z,102216.16
2022-10-03T22:37:38.933Z,102220.81
2022-10-03T22:40:08.278Z,102223.69
2022-10-03T22:42:43.368Z,102213.16
2022-10-03T22:45:16.232Z,102214.31
2022-10-03T22:47:48.573Z,102216.34
2022-10-03T22:50:19.921Z,102214.34
2022-10-03T22:52:51.795Z,102212.00
2022-10-03T22:55:23.024Z,102211.47
2022-10-03T22:57:52.575Z,102208.13
2022-10-03T23:00:25.010Z,102211.16
2022-10-03T23:03:04.925Z,102206.97
2022-10-03T23:05:49.963Z,102205.44
2022-10-03T23:08:28.487Z,102196.97
2022-10-03T23:11:01.301Z,102197.94
2022-10-03T23:13:36.354Z,102194.78
2022-10-03T23:16:17.121Z,102196.78
2022-10-03T23:19:11.606Z,102189.09
2022-10-03T23:21:46.102Z,102186.59
2022-10-03T23:24:22.218Z,102186.09
2022-10-03T23:27:24.509Z,102191.78
2022-10-03T23:30:29.693Z,102188.75
2022-10-03T23:33:00.430Z,102201.59
2022-10-03T23:35:40.993Z,102188.56
2022-10-03T23:38:41.637Z,102184.59
2022-10-03T23:41:13.675Z,102185.06
2022-10-03T23:43:49.897Z,102173.06
2022-10-03T23:46:20.093Z,102170.72
2022-10-03T23:48:51.061Z,102173.88
2022-10-03T23:51:22.866Z,102168.88
2022-10-03T23:53:52.754Z,102168.03
2022-10-03T23:56:34.292Z,102167.22
2022-10-03T23:59:12.983Z,102169.19
